Time;durP1;ratioP1;P1;durP2;ratioP2;P2;SDS_P1;SDS_P2;PMS_P1;PMS_P2;Temp;Humidity;BMP_temperature;BMP_pressure;BME280_temperature;BME280_humidity;BME280_pressure;Samples;Min_cycle;Max_cycle;Signal;HPM_P1;HPM_P2
2023/10/06 00:01:40;;;;;;;12.98;8.85;;;;;;;;;;4954981;28;20031;-77
2023/10/06 00:04:07;;;;;;;12.43;8.02;;;;;;;;;;4940375;28;20855;-77
2023/10/06 00:06:37;;;;;;;15.55;9.15;;;;;;;;;;4954579;28;20035;-77
2023/10/06 00:09:06;;;;;;;14.80;8.63;;;;;;;;;;4971088;28;20047;-77
2023/10/06 00:11:31;;;;;;;15.13;8.88;;;;;;;;;;4955227;28;20186;-77
2023/10/06 00:14:00;;;;;;;14.60;9.02;;;;;;;;;;4958888;28;20129;-78
2023/10/06 00:16:38;;;;;;;12.63;8.38;;;;;;;;;;4940623;28;20444;-77
2023/10/06 00:19:21;;;;;;;12.88;8.60;;;;;;;;;;4973934;28;20061;-78
2023/10/06 00:21:47;;;;;;;14.38;9.00;;;;;;;;;;4957701;28;20447;-77
2023/10/06 00:24:14;;;;;;;12.80;8.00;;;;;;;;;;4942525;28;20043;-77
2023/10/06 00:26:42;;;;;;;12.38;7.90;;;;;;;;;;4959659;28;20041;-77
2023/10/06 00:29:17;;;;;;;13.25;8.23;;;;;;;;;;4958691;28;20110;-78
2023/10/06 00:31:47;;;;;;;13.57;8.38;;;;;;;;;;4959839;28;20047;-77
2023/10/06 00:34:19;;;;;;;12.15;8.30;;;;;;;;;;4941898;28;20838;-77
2023/10/06 00:36:51;;;;;;;14.27;9.27;;;;;;;;;;4974112;28;20047;-78
2023/10/06 00:39:18;;;;;;;13.68;8.80;;;;;;;;;;4949845;28;20046;-78
2023/10/06 00:41:44;;;;;;;13.52;8.65;;;;;;;;;;4958071;28;20086;-78
2023/10/06 00:44:09;;;;;;;13.10;8.88;;;;;;;;;;4958730;28;20035;-78
2023/10/06 00:46:34;;;;;;;14.43;8.70;;;;;;;;;;4961320;28;20038;-78
2023/10/06 00:49:04;;;;;;;11.82;8.43;;;;;;;;;;4941121;28;20450;-78
2023/10/06 00:51:30;;;;;;;12.32;8.15;;;;;;;;;;4973127;28;20370;-78
2023/10/06 00:53:56;;;;;;;14.80;8.68;;;;;;;;;;4948691;28;20050;-78
2023/10/06 00:56:23;;;;;;;12.73;8.30;;;;;;;;;;4944333;28;20042;-77
2023/10/06 00:58:49;;;;;;;14.57;8.77;;;;;;;;;;4977714;28;20069;-78
2023/10/06 01:01:17;;;;;;;13.63;8.90;;;;;;;;;;4974820;28;20442;-78
2023/10/06 01:04:02;;;;;;;14.50;9.18;;;;;;;;;;4960318;28;20097;-78
2023/10/06 01:06:33;;;;;;;14.77;9.13;;;;;;;;;;4956943;28;20500;-78
2023/10/06 01:11:55;;;;;;;16.23;9.48;;;;;;;;;;4966007;28;20045;-78
2023/10/06 01:14:25;;;;;;;16.30;9.73;;;;;;;;;;4974050;28;20039;-78
2023/10/06 01:16:52;;;;;;;15.00;9.57;;;;;;;;;;4956416;28;20051;-78
2023/10/06 01:21:56;;;;;;;14.48;9.15;;;;;;;;;;4971986;28;20045;-77
2023/10/06 01:24:28;;;;;;;12.88;8.68;;;;;;;;;;4957688;28;20472;-77
2023/10/06 01:27:10;;;;;;;14.93;9.82;;;;;;;;;;4964732;28;20035;-77
2023/10/06 01:29:35;;;;;;;15.77;9.50;;;;;;;;;;4958257;28;20031;-78
2023/10/06 01:32:05;;;;;;;16.30;9.95;;;;;;;;;;4955032;28;20050;-78
2023/10/06 01:34:35;;;;;;;17.00;9.82;;;;;;;;;;4973629;28;20042;-77
2023/10/06 01:37:03;;;;;;;17.02;10.57;;;;;;;;;;4942943;28;20050;-78
2023/10/06 01:39:32;;;;;;;16.92;10.52;;;;;;;;;;4923186;28;20170;-77
2023/10/06 01:42:03;;;;;;;21.75;11.93;;;;;;;;;;4961965;28;20507;-77
2023/10/06 01:44:29;;;;;;;19.63;11.98;;;;;;;;;;4939490;28;20030;-77
2023/10/06 01:46:54;;;;;;;19.38;12.00;;;;;;;;;;4955068;28;20027;-77
2023/10/06 01:49:21;;;;;;;20.15;11.13;;;;;;;;;;4974568;28;20042;-77
2023/10/06 01:51:50;;;;;;;22.23;11.57;;;;;;;;;;4957407;28;20039;-77
2023/10/06 01:54:17;;;;;;;17.55;11.10;;;;;;;;;;4948560;28;20478;-77
2023/10/06 01:56:42;;;;;;;20.35;12.35;;;;;;;;;;4957239;28;20263;-77
2023/10/06 01:59:11;;;;;;;17.83;11.25;;;;;;;;;;4962651;28;20038;-77
2023/10/06 02:01:40;;;;;;;19.73;12.18;;;;;;;;;;4962295;28;20034;-76
2023/10/06 02:04:14;;;;;;;18.35;10.82;;;;;;;;;;4956738;28;21083;-76
2023/10/06 02:06:51;;;;;;;17.88;11.57;;;;;;;;;;4948348;28;20460;-77
2023/10/06 02:09:18;;;;;;;21.33;12.40;;;;;;;;;;4962043;28;20031;-77
2023/10/06 02:11:49;;;;;;;19.27;12.02;;;;;;;;;;4938807;28;20043;-77
2023/10/06 02:14:17;;;;;;;24.20;12.25;;;;;;;;;;4963358;28;20502;-77
2023/10/06 02:16:45;;;;;;;23.50;12.38;;;;;;;;;;4947414;28;20526;-77
2023/10/06 02:19:15;;;;;;;24.08;12.15;;;;;;;;;;4973421;28;20035;-77
2023/10/06 02:21:51;;;;;;;21.75;12.68;;;;;;;;;;4971675;28;20093;-77
2023/10/06 02:24:16;;;;;;;22.70;11.75;;;;;;;;;;4947227;28;20391;-77
2023/10/06 02:26:59;;;;;;;21.70;12.90;;;;;;;;;;4958955;28;20031;-77
2023/10/06 02:29:24;;;;;;;20.80;12.35;;;;;;;;;;4962481;28;20043;-78
2023/10/06 02:31:50;;;;;;;25.30;12.77;;;;;;;;;;4939838;28;20038;-77
2023/10/06 02:34:21;;;;;;;21.40;13.30;;;;;;;;;;4956527;28;20043;-77
2023/10/06 02:36:47;;;;;;;23.27;12.30;;;;;;;;;;4938931;28;20038;-77
2023/10/06 02:39:15;;;;;;;20.83;11.88;;;;;;;;;;4941811;28;20039;-76
2023/10/06 02:41:41;;;;;;;20.23;12.07;;;;;;;;;;4938443;28;20131;-76
2023/10/06 02:44:18;;;;;;;24.45;13.25;;;;;;;;;;4950564;28;20050;-76
2023/10/06 02:46:49;;;;;;;24.00;13.20;;;;;;;;;;4970895;28;20069;-77
2023/10/06 02:49:24;;;;;;;21.95;12.85;;;;;;;;;;4957060;28;20399;-77
2023/10/06 02:51:50;;;;;;;23.58;13.02;;;;;;;;;;4955759;28;20399;-77
2023/10/06 02:56:43;;;;;;;26.05;13.32;;;;;;;;;;4956473;28;20478;-76
2023/10/06 02:59:34;;;;;;;;;;;;;;;;;;4942567;28;20122;-77
2023/10/06 03:02:06;;;;;;;25.58;13.20;;;;;;;;;;4967402;28;19924;-77
2023/10/06 03:04:36;;;;;;;23.13;13.02;;;;;;;;;;4955927;28;20037;-77
2023/10/06 03:07:04;;;;;;;21.70;13.02;;;;;;;;;;4939191;28;20634;-78
2023/10/06 03:09:45;;;;;;;23.17;13.18;;;;;;;;;;4978825;28;20038;-78
2023/10/06 03:14:49;;;;;;;25.35;13.70;;;;;;;;;;4957984;28;20127;-78
2023/10/06 03:17:18;;;;;;;23.15;13.02;;;;;;;;;;4961340;28;20129;-77
2023/10/06 03:19:44;;;;;;;22.65;14.07;;;;;;;;;;4941748;28;20031;-77
2023/10/06 03:22:13;;;;;;;25.73;12.70;;;;;;;;;;4970560;28;20071;-77
2023/10/06 03:24:53;;;;;;;26.45;14.25;;;;;;;;;;4962538;28;20050;-76
2023/10/06 03:27:22;;;;;;;23.45;14.13;;;;;;;;;;4955194;28;20582;-76
2023/10/06 03:32:27;;;;;;;24.52;14.50;;;;;;;;;;4970693;28;20046;-77
2023/10/06 03:34:55;;;;;;;23.63;13.95;;;;;;;;;;4957315;28;20522;-77
2023/10/06 03:37:34;;;;;;;26.40;13.73;;;;;;;;;;4945920;28;20043;-76
2023/10/06 03:40:19;;;;;;;25.08;13.98;;;;;;;;;;4941227;28;20043;-77
2023/10/06 03:42:45;;;;;;;26.08;14.32;;;;;;;;;;4942122;28;20043;-77
2023/10/06 03:45:26;;;;;;;27.17;14.90;;;;;;;;;;4956109;28;20045;-77
2023/10/06 03:47:51;;;;;;;22.85;13.30;;;;;;;;;;4941730;28;20043;-77
2023/10/06 03:50:19;;;;;;;28.17;15.35;;;;;;;;;;4973058;28;20039;-77
2023/10/06 03:52:47;;;;;;;26.98;16.67;;;;;;;;;;4960432;28;20121;-77
2023/10/06 03:55:13;;;;;;;28.70;16.58;;;;;;;;;;4959520;28;20034;-77
2023/10/06 03:57:38;;;;;;;28.70;16.13;;;;;;;;;;4958020;28;20056;-77
2023/10/06 04:00:05;;;;;;;27.75;15.75;;;;;;;;;;4943160;28;21406;-77
2023/10/06 04:02:38;;;;;;;30.15;15.45;;;;;;;;;;4964985;28;20037;-77
2023/10/06 04:05:07;;;;;;;27.50;15.20;;;;;;;;;;4959789;28;20101;-77
2023/10/06 04:07:32;;;;;;;27.33;15.57;;;;;;;;;;4945078;28;20607;-77
2023/10/06 04:09:58;;;;;;;25.83;14.90;;;;;;;;;;4951542;28;20046;-78
2023/10/06 04:12:23;;;;;;;26.65;15.77;;;;;;;;;;4949025;28;20078;-78
2023/10/06 04:14:49;;;;;;;30.90;17.42;;;;;;;;;;4976134;28;20042;-78
2023/10/06 04:17:16;;;;;;;28.73;17.35;;;;;;;;;;4973278;28;20035;-79
2023/10/06 04:19:41;;;;;;;34.50;19.63;;;;;;;;;;4949612;28;20513;-78
2023/10/06 04:22:08;;;;;;;33.20;17.35;;;;;;;;;;4957638;28;20027;-78
2023/10/06 04:24:34;;;;;;;28.88;16.92;;;;;;;;;;4942400;28;20548;-77
2023/10/06 04:27:00;;;;;;;34.42;18.25;;;;;;;;;;4947901;28;20422;-78
2023/10/06 04:29:26;;;;;;;38.53;19.58;;;;;;;;;;4957661;28;20154;-78
2023/10/06 04:31:52;;;;;;;35.08;18.90;;;;;;;;;;4949213;28;20540;-76
2023/10/06 04:34:21;;;;;;;27.75;16.50;;;;;;;;;;4942418;28;20050;-76
2023/10/06 04:36:48;;;;;;;37.17;18.95;;;;;;;;;;4957401;28;20106;-75
2023/10/06 04:39:16;;;;;;;34.00;19.10;;;;;;;;;;4965561;28;20042;-76
2023/10/06 04:41:42;;;;;;;33.47;19.27;;;;;;;;;;4947983;28;20420;-75
2023/10/06 04:44:08;;;;;;;37.45;21.17;;;;;;;;;;4942485;28;20031;-75
2023/10/06 04:46:35;;;;;;;36.65;21.15;;;;;;;;;;4957530;28;20118;-76
2023/10/06 04:49:01;;;;;;;37.95;21.52;;;;;;;;;;4953789;28;20494;-74
2023/10/06 04:51:29;;;;;;;45.72;20.52;;;;;;;;;;4980023;28;20035;-77
2023/10/06 04:53:55;;;;;;;45.13;21.58;;;;;;;;;;4959853;28;20617;-75
2023/10/06 04:56:20;;;;;;;39.05;20.88;;;;;;;;;;4973418;28;20119;-76
2023/10/06 04:58:46;;;;;;;40.17;22.80;;;;;;;;;;4972859;28;20037;-76
2023/10/06 05:01:12;;;;;;;45.05;24.27;;;;;;;;;;4958434;28;20148;-75
2023/10/06 05:03:42;;;;;;;43.63;21.70;;;;;;;;;;4943141;28;20043;-76
2023/10/06 05:06:21;;;;;;;41.58;23.48;;;;;;;;;;4957152;28;20034;-77
2023/10/06 05:08:47;;;;;;;41.40;22.42;;;;;;;;;;4963788;28;20042;-78
2023/10/06 05:11:14;;;;;;;45.10;23.67;;;;;;;;;;4941688;28;20043;-78
2023/10/06 05:13:40;;;;;;;50.65;24.10;;;;;;;;;;4957734;28;20049;-79
2023/10/06 05:16:05;;;;;;;45.65;24.08;;;;;;;;;;4963972;28;20043;-75
2023/10/06 05:18:33;;;;;;;44.00;23.60;;;;;;;;;;4960136;28;20406;-75
2023/10/06 05:20:58;;;;;;;43.40;24.02;;;;;;;;;;4958318;28;20035;-78
2023/10/06 05:23:24;;;;;;;42.42;22.88;;;;;;;;;;4940526;28;20509;-76
2023/10/06 05:25:49;;;;;;;38.03;22.35;;;;;;;;;;4939196;28;20093;-76
2023/10/06 05:28:17;;;;;;;44.25;24.05;;;;;;;;;;4959149;28;20039;-75
2023/10/06 05:30:44;;;;;;;45.83;24.70;;;;;;;;;;4957522;28;20046;-74
2023/10/06 05:33:10;;;;;;;44.00;23.27;;;;;;;;;;4964701;28;20035;-75
2023/10/06 05:35:40;;;;;;;41.78;23.80;;;;;;;;;;4947899;28;20043;-75
2023/10/06 05:38:08;;;;;;;41.45;22.33;;;;;;;;;;4947945;28;20043;-75
2023/10/06 05:40:37;;;;;;;44.60;23.63;;;;;;;;;;4941523;28;20042;-75
2023/10/06 05:43:04;;;;;;;44.30;23.05;;;;;;;;;;4959432;28;20589;-75
2023/10/06 05:45:30;;;;;;;45.00;24.60;;;;;;;;;;4959760;28;20548;-76
2023/10/06 05:47:58;;;;;;;46.03;24.05;;;;;;;;;;4957314;28;20042;-75
2023/10/06 05:50:27;;;;;;;43.55;24.40;;;;;;;;;;4941265;28;20049;-75
2023/10/06 05:52:59;;;;;;;43.08;24.55;;;;;;;;;;4979485;28;20500;-75
2023/10/06 05:55:35;;;;;;;42.45;24.02;;;;;;;;;;4957476;28;20499;-76
2023/10/06 05:58:03;;;;;;;45.30;23.73;;;;;;;;;;4957649;28;20130;-75
2023/10/06 06:00:33;;;;;;;46.38;25.48;;;;;;;;;;4960481;28;20938;-75
2023/10/06 06:03:10;;;;;;;43.90;25.60;;;;;;;;;;4973548;28;20460;-75
2023/10/06 06:05:37;;;;;;;42.78;24.77;;;;;;;;;;4947567;28;20541;-75
2023/10/06 06:08:10;;;;;;;43.35;25.05;;;;;;;;;;4946968;28;20090;-75
2023/10/06 06:10:36;;;;;;;40.10;23.65;;;;;;;;;;4946849;28;20051;-75
2023/10/06 06:13:02;;;;;;;41.13;23.88;;;;;;;;;;4973388;28;20542;-75
2023/10/06 06:15:28;;;;;;;40.13;23.70;;;;;;;;;;4963170;28;20101;-76
2023/10/06 06:17:54;;;;;;;46.00;24.75;;;;;;;;;;4958490;28;20042;-76
2023/10/06 06:20:22;;;;;;;40.63;24.83;;;;;;;;;;4957450;28;20031;-76
2023/10/06 06:22:53;;;;;;;38.67;22.20;;;;;;;;;;4978873;28;20043;-76
2023/10/06 06:25:19;;;;;;;42.15;24.15;;;;;;;;;;4957671;28;20060;-76
2023/10/06 06:27:45;;;;;;;39.83;22.65;;;;;;;;;;4962622;28;20031;-76
2023/10/06 06:30:11;;;;;;;37.97;23.48;;;;;;;;;;4914624;28;20054;-76
2023/10/06 06:32:36;;;;;;;33.83;23.02;;;;;;;;;;4956520;28;20102;-75
2023/10/06 06:35:02;;;;;;;35.03;21.67;;;;;;;;;;4941043;28;20051;-76
2023/10/06 06:37:27;;;;;;;33.35;22.45;;;;;;;;;;4956289;28;20073;-75
2023/10/06 06:39:53;;;;;;;32.15;21.58;;;;;;;;;;4963348;28;20039;-76
2023/10/06 06:42:19;;;;;;;31.27;20.80;;;;;;;;;;4955443;28;20058;-76
2023/10/06 06:44:47;;;;;;;33.03;21.50;;;;;;;;;;4956966;28;20066;-76
2023/10/06 06:47:16;;;;;;;28.65;19.92;;;;;;;;;;4956948;28;20042;-75
2023/10/06 06:49:44;;;;;;;30.52;20.60;;;;;;;;;;4940672;28;20035;-76
2023/10/06 06:52:10;;;;;;;29.67;20.30;;;;;;;;;;4950110;28;20522;-76
2023/10/06 06:54:39;;;;;;;28.83;19.80;;;;;;;;;;4966177;28;20039;-76
2023/10/06 06:57:04;;;;;;;30.23;19.90;;;;;;;;;;4962266;28;20066;-74
2023/10/06 06:59:31;;;;;;;26.23;20.05;;;;;;;;;;4959345;28;20073;-75
2023/10/06 07:01:58;;;;;;;26.20;18.67;;;;;;;;;;4960843;28;20616;-76
2023/10/06 07:04:26;;;;;;;26.95;19.40;;;;;;;;;;4946905;28;20432;-76
2023/10/06 07:06:52;;;;;;;27.13;19.40;;;;;;;;;;4951997;28;20458;-77
2023/10/06 07:09:18;;;;;;;24.50;18.02;;;;;;;;;;4972048;28;20039;-76
2023/10/06 07:11:44;;;;;;;27.67;18.10;;;;;;;;;;4962071;28;20042;-76
2023/10/06 07:14:10;;;;;;;26.27;17.60;;;;;;;;;;4971938;28;20042;-76
2023/10/06 07:16:36;;;;;;;22.92;17.23;;;;;;;;;;4940231;28;20043;-75
2023/10/06 07:19:01;;;;;;;24.85;16.88;;;;;;;;;;4954342;28;20044;-74
2023/10/06 07:21:28;;;;;;;24.52;17.27;;;;;;;;;;4938747;28;20055;-76
2023/10/06 07:23:56;;;;;;;24.17;16.42;;;;;;;;;;4954887;28;20057;-74
2023/10/06 07:26:22;;;;;;;23.15;16.02;;;;;;;;;;4955645;28;20038;-76
2023/10/06 07:28:52;;;;;;;21.75;15.73;;;;;;;;;;4971812;28;20046;-76
2023/10/06 07:31:17;;;;;;;19.35;14.93;;;;;;;;;;4956158;28;20604;-76
2023/10/06 07:34:25;;;;;;;18.60;13.80;;;;;;;;;;4959377;28;20035;-77
2023/10/06 07:36:35;;;;;;;23.05;13.82;;;;;;;;;;4963097;28;20096;-75
2023/10/06 07:39:03;;;;;;;19.05;13.88;;;;;;;;;;4954242;28;20046;-76
2023/10/06 07:41:29;;;;;;;18.40;14.27;;;;;;;;;;4962485;28;20114;-76
2023/10/06 07:43:56;;;;;;;20.15;14.30;;;;;;;;;;4953963;28;20118;-75
2023/10/06 07:46:21;;;;;;;18.00;13.10;;;;;;;;;;4971581;28;20043;-76
2023/10/06 07:48:46;;;;;;;20.25;13.27;;;;;;;;;;4956008;28;20514;-75
2023/10/06 07:51:21;;;;;;;17.98;11.90;;;;;;;;;;4956282;28;20410;-76
2023/10/06 07:53:48;;;;;;;18.95;11.35;;;;;;;;;;4940002;28;20043;-76
2023/10/06 07:56:14;;;;;;;17.58;12.07;;;;;;;;;;4937191;28;20121;-75
2023/10/06 07:58:43;;;;;;;18.30;11.30;;;;;;;;;;4939293;28;20165;-75
2023/10/06 08:01:12;;;;;;;17.02;11.20;;;;;;;;;;4961693;28;20621;-75
2023/10/06 08:03:39;;;;;;;16.55;10.88;;;;;;;;;;4953426;28;20043;-76
2023/10/06 08:06:20;;;;;;;15.50;10.70;;;;;;;;;;4936491;28;20491;-76
2023/10/06 08:08:48;;;;;;;16.75;11.10;;;;;;;;;;4954614;28;20503;-76
2023/10/06 08:11:15;;;;;;;15.70;9.88;;;;;;;;;;4960794;28;20050;-75
2023/10/06 08:13:42;;;;;;;;;;;;;;;;;;4956548;28;20061;-74
2023/10/06 08:16:07;;;;;;;16.08;9.55;;;;;;;;;;4971230;28;19922;-75
2023/10/06 08:18:33;;;;;;;12.32;8.90;;;;;;;;;;4962014;28;20363;-75
2023/10/06 08:21:00;;;;;;;13.30;8.70;;;;;;;;;;4956327;28;20027;-76
2023/10/06 08:23:27;;;;;;;14.48;8.85;;;;;;;;;;4940291;28;20114;-75
2023/10/06 08:25:56;;;;;;;11.97;8.60;;;;;;;;;;4971340;28;20035;-74
2023/10/06 08:28:26;;;;;;;12.27;8.40;;;;;;;;;;4956611;28;20612;-75
2023/10/06 08:30:51;;;;;;;15.73;8.80;;;;;;;;;;4961760;28;20047;-76
2023/10/06 08:33:17;;;;;;;12.48;8.57;;;;;;;;;;4937386;28;20120;-76
2023/10/06 08:35:42;;;;;;;12.02;8.38;;;;;;;;;;4943161;28;20062;-75
2023/10/06 08:38:09;;;;;;;12.43;8.13;;;;;;;;;;4964849;28;20043;-75
2023/10/06 08:40:36;;;;;;;15.60;8.50;;;;;;;;;;4958457;28;20046;-76
2023/10/06 08:43:06;;;;;;;15.98;8.38;;;;;;;;;;4975972;28;20133;-75
2023/10/06 08:45:32;;;;;;;14.93;8.68;;;;;;;;;;4946981;28;20564;-76
2023/10/06 08:47:59;;;;;;;12.80;7.95;;;;;;;;;;4942458;28;20038;-76
2023/10/06 08:50:28;;;;;;;11.80;7.53;;;;;;;;;;4960590;28;20110;-77
2023/10/06 08:53:01;;;;;;;13.68;7.60;;;;;;;;;;4960237;28;20046;-75
2023/10/06 08:55:30;;;;;;;12.10;7.10;;;;;;;;;;4960541;28;20398;-76
2023/10/06 08:57:58;;;;;;;11.48;6.22;;;;;;;;;;4959350;28;20085;-76
2023/10/06 09:00:24;;;;;;;12.85;6.70;;;;;;;;;;4957976;28;20051;-75
2023/10/06 09:02:54;;;;;;;10.15;5.97;;;;;;;;;;4957423;28;20046;-76
2023/10/06 09:05:20;;;;;;;9.02;5.72;;;;;;;;;;4956301;28;20552;-75
2023/10/06 09:08:05;;;;;;;9.52;5.82;;;;;;;;;;4957606;28;20047;-77
2023/10/06 09:10:37;;;;;;;9.73;5.25;;;;;;;;;;4966607;28;20711;-76
2023/10/06 09:13:04;;;;;;;10.82;5.00;;;;;;;;;;4939103;28;20043;-75
2023/10/06 09:15:30;;;;;;;11.77;5.03;;;;;;;;;;4974429;28;20074;-74
2023/10/06 09:17:59;;;;;;;8.55;4.63;;;;;;;;;;4958882;28;20399;-75
2023/10/06 09:20:29;;;;;;;9.13;4.60;;;;;;;;;;4963574;28;20604;-75
2023/10/06 09:22:55;;;;;;;7.47;4.13;;;;;;;;;;4963894;28;20043;-76
2023/10/06 09:25:21;;;;;;;8.60;4.30;;;;;;;;;;4959639;28;20071;-75
2023/10/06 09:27:48;;;;;;;8.15;4.22;;;;;;;;;;4950483;28;20058;-75
2023/10/06 09:30:20;;;;;;;8.75;3.78;;;;;;;;;;4958449;28;20690;-74
2023/10/06 09:32:46;;;;;;;8.70;3.85;;;;;;;;;;4956516;28;20039;-75
2023/10/06 09:35:19;;;;;;;9.90;3.78;;;;;;;;;;4957996;28;20054;-75
2023/10/06 09:37:45;;;;;;;9.73;3.20;;;;;;;;;;4957152;28;20435;-75
2023/10/06 09:40:32;;;;;;;7.43;3.30;;;;;;;;;;4947852;28;20179;-76
2023/10/06 09:42:57;;;;;;;7.45;3.55;;;;;;;;;;4970006;28;20039;-75
2023/10/06 09:45:24;;;;;;;7.25;3.10;;;;;;;;;;4954882;28;20734;-76
2023/10/06 09:47:51;;;;;;;;;;;;;;;;;;4972822;28;20071;-75
2023/10/06 09:50:20;;;;;;;9.57;2.97;;;;;;;;;;4978019;28;19926;-75
2023/10/06 09:52:50;;;;;;;7.03;2.90;;;;;;;;;;4957929;28;20274;-75
2023/10/06 09:55:17;;;;;;;6.00;2.58;;;;;;;;;;4978445;28;20039;-75
2023/10/06 09:57:44;;;;;;;5.67;2.70;;;;;;;;;;4962628;28;20495;-76
2023/10/06 10:00:16;;;;;;;7.47;2.28;;;;;;;;;;4971878;28;20628;-76
2023/10/06 10:02:48;;;;;;;6.47;2.40;;;;;;;;;;4973342;28;20082;-75
2023/10/06 10:05:18;;;;;;;7.47;2.13;;;;;;;;;;4956980;28;20030;-75
2023/10/06 10:07:52;;;;;;;6.90;2.28;;;;;;;;;;4954815;28;20042;-76
2023/10/06 10:10:23;;;;;;;7.45;2.30;;;;;;;;;;4958220;28;20047;-76
2023/10/06 10:13:19;;;;;;;5.75;2.17;;;;;;;;;;4956905;28;20056;-76
2023/10/06 10:16:16;;;;;;;6.50;2.10;;;;;;;;;;4956687;28;20126;-75
2023/10/06 10:18:48;;;;;;;7.25;2.15;;;;;;;;;;4962333;28;20523;-75
2023/10/06 10:21:15;;;;;;;5.07;2.10;;;;;;;;;;4955771;28;20042;-74
2023/10/06 10:23:43;;;;;;;7.18;2.10;;;;;;;;;;4973249;28;20039;-75
2023/10/06 10:26:22;;;;;;;8.45;2.40;;;;;;;;;;4956960;28;20472;-75
2023/10/06 10:29:12;;;;;;;7.32;2.13;;;;;;;;;;4958049;28;20039;-75
2023/10/06 10:31:41;;;;;;;5.85;2.28;;;;;;;;;;4957157;28;20097;-75
2023/10/06 10:34:10;;;;;;;5.82;2.33;;;;;;;;;;4978711;28;20517;-75
2023/10/06 10:36:36;;;;;;;7.53;2.13;;;;;;;;;;4954824;28;20070;-76
2023/10/06 10:39:14;;;;;;;6.22;1.95;;;;;;;;;;4940469;28;20133;-75
2023/10/06 10:41:40;;;;;;;7.13;1.92;;;;;;;;;;4936856;28;20114;-75
2023/10/06 10:44:08;;;;;;;7.32;1.95;;;;;;;;;;4937689;28;20558;-75
2023/10/06 10:46:47;;;;;;;6.30;1.75;;;;;;;;;;4939157;28;20031;-74
2023/10/06 10:49:15;;;;;;;4.28;1.65;;;;;;;;;;4963793;28;20491;-76
2023/10/06 10:51:57;;;;;;;5.22;1.83;;;;;;;;;;4946552;28;20137;-75
2023/10/06 10:54:26;;;;;;;5.88;1.90;;;;;;;;;;4957132;28;20035;-76
2023/10/06 10:56:53;;;;;;;5.63;1.50;;;;;;;;;;4945890;28;20403;-76
2023/10/06 10:59:23;;;;;;;6.57;1.95;;;;;;;;;;4945594;28;20964;-75
2023/10/06 11:01:51;;;;;;;6.85;1.60;;;;;;;;;;4956347;28;20101;-75
2023/10/06 11:04:30;;;;;;;6.22;1.98;;;;;;;;;;4956461;28;20518;-76
2023/10/06 11:07:09;;;;;;;5.60;1.70;;;;;;;;;;4940716;28;20050;-75
2023/10/06 11:09:46;;;;;;;4.72;1.70;;;;;;;;;;4959157;28;21160;-75
2023/10/06 11:12:25;;;;;;;5.72;2.00;;;;;;;;;;4970095;28;20054;-76
2023/10/06 11:14:51;;;;;;;4.30;1.63;;;;;;;;;;4945845;28;20494;-74
2023/10/06 11:17:21;;;;;;;5.07;1.90;;;;;;;;;;4960980;28;20043;-76
2023/10/06 11:20:12;;;;;;;6.40;2.10;;;;;;;;;;4973337;28;20045;-75
2023/10/06 11:22:38;;;;;;;5.97;2.15;;;;;;;;;;4946754;28;20119;-76
2023/10/06 11:25:06;;;;;;;6.78;1.75;;;;;;;;;;4972585;28;20047;-76
2023/10/06 11:27:31;;;;;;;;;;;;;;;;;;4956377;28;20034;-75
2023/10/06 11:29:59;;;;;;;5.32;1.80;;;;;;;;;;4972419;28;19964;-76
2023/10/06 11:32:26;;;;;;;;;;;;;;;;;;4938278;28;20057;-75
2023/10/06 11:34:52;;;;;;;4.78;1.90;;;;;;;;;;4955083;28;19925;-76
2023/10/06 11:37:29;;;;;;;5.90;2.05;;;;;;;;;;4957779;28;20113;-75
2023/10/06 11:39:57;;;;;;;6.15;1.95;;;;;;;;;;4956566;28;20460;-76
2023/10/06 11:42:25;;;;;;;4.70;1.70;;;;;;;;;;4970736;28;20062;-75
2023/10/06 11:44:59;;;;;;;6.30;1.70;;;;;;;;;;4973224;28;20502;-76
2023/10/06 11:47:27;;;;;;;6.93;2.00;;;;;;;;;;4945150;28;20522;-77
2023/10/06 11:49:57;;;;;;;7.53;1.95;;;;;;;;;;4972906;28;20054;-76
2023/10/06 11:52:22;;;;;;;4.47;1.90;;;;;;;;;;4961552;28;20487;-76
2023/10/06 11:54:48;;;;;;;12.27;2.83;;;;;;;;;;4957164;28;20038;-76
2023/10/06 11:57:19;;;;;;;7.57;1.88;;;;;;;;;;4971961;28;20043;-76
2023/10/06 11:59:51;;;;;;;7.35;1.83;;;;;;;;;;4955470;28;20126;-76
2023/10/06 12:02:17;;;;;;;6.75;2.10;;;;;;;;;;4960523;28;20035;-76
2023/10/06 12:04:44;;;;;;;4.40;1.60;;;;;;;;;;4956279;28;20376;-77
2023/10/06 12:07:25;;;;;;;7.60;1.67;;;;;;;;;;4954405;28;20030;-76
2023/10/06 12:09:52;;;;;;;5.88;1.52;;;;;;;;;;4974628;28;20042;-76
2023/10/06 12:12:17;;;;;;;5.53;1.50;;;;;;;;;;4958172;28;20078;-77
2023/10/06 12:14:46;;;;;;;6.43;1.45;;;;;;;;;;4960371;28;20034;-76
2023/10/06 12:17:20;;;;;;;4.55;1.65;;;;;;;;;;4954668;28;20044;-76
2023/10/06 12:19:45;;;;;;;5.32;1.52;;;;;;;;;;4961280;28;20042;-76
2023/10/06 12:22:11;;;;;;;7.88;1.80;;;;;;;;;;4958740;28;20030;-76
2023/10/06 12:24:36;;;;;;;5.65;1.55;;;;;;;;;;4949524;28;20047;-76
2023/10/06 12:27:04;;;;;;;6.05;1.70;;;;;;;;;;4964759;28;20065;-76
2023/10/06 12:29:31;;;;;;;4.78;1.30;;;;;;;;;;4939945;28;20049;-76
2023/10/06 12:31:57;;;;;;;6.35;1.60;;;;;;;;;;4939550;28;20503;-76
2023/10/06 12:34:27;;;;;;;8.57;1.75;;;;;;;;;;4981222;28;20045;-76
2023/10/06 12:36:53;;;;;;;5.70;1.50;;;;;;;;;;4973530;28;20039;-76
2023/10/06 12:39:34;;;;;;;5.70;1.70;;;;;;;;;;4961398;28;20038;-75
2023/10/06 12:42:05;;;;;;;5.75;1.40;;;;;;;;;;4972894;28;20045;-76
2023/10/06 12:44:31;;;;;;;6.57;1.65;;;;;;;;;;4958248;28;20035;-76
2023/10/06 12:47:03;;;;;;;3.80;1.25;;;;;;;;;;4940672;28;20497;-76
2023/10/06 12:49:49;;;;;;;4.93;1.52;;;;;;;;;;4960511;28;20035;-76
2023/10/06 12:52:14;;;;;;;7.10;2.17;;;;;;;;;;4886751;29;20123;-76
2023/10/06 12:54:41;;;;;;;4.07;1.40;;;;;;;;;;4907263;29;20460;-76
2023/10/06 12:57:06;;;;;;;4.97;1.90;;;;;;;;;;4904534;29;20512;-75
2023/10/06 12:59:32;;;;;;;5.70;1.27;;;;;;;;;;4902620;29;20161;-75
2023/10/06 13:01:58;;;;;;;5.30;1.60;;;;;;;;;;4886585;29;20525;-76
2023/10/06 13:04:26;;;;;;;5.78;1.70;;;;;;;;;;4897893;29;20047;-75
2023/10/06 13:06:52;;;;;;;3.92;1.50;;;;;;;;;;4901548;29;20044;-76
2023/10/06 13:09:20;;;;;;;5.13;1.70;;;;;;;;;;4895514;29;20099;-79
2023/10/06 13:11:48;;;;;;;5.57;1.60;;;;;;;;;;4880822;29;20205;-79
2023/10/06 13:14:21;;;;;;;4.38;1.55;;;;;;;;;;4865624;29;20050;-76
2023/10/06 13:16:46;;;;;;;4.05;1.27;;;;;;;;;;4863347;29;20133;-76
2023/10/06 13:19:12;;;;;;;4.63;1.50;;;;;;;;;;4895103;29;20455;-78
2023/10/06 13:21:42;;;;;;;5.93;1.85;;;;;;;;;;4890292;29;20044;-78
2023/10/06 13:24:08;;;;;;;4.97;1.90;;;;;;;;;;4886090;29;20044;-77
2023/10/06 13:26:35;;;;;;;6.10;1.90;;;;;;;;;;4894742;29;20036;-77
2023/10/06 13:29:23;;;;;;;5.30;1.63;;;;;;;;;;4924534;28;20101;-78
2023/10/06 13:31:48;;;;;;;8.35;1.70;;;;;;;;;;4935032;28;20047;-78
2023/10/06 13:34:15;;;;;;;5.70;2.10;;;;;;;;;;4943212;28;20066;-77
2023/10/06 13:36:41;;;;;;;6.97;1.88;;;;;;;;;;4920396;29;20099;-78
2023/10/06 13:39:09;;;;;;;4.63;1.90;;;;;;;;;;4940530;28;20109;-77
2023/10/06 13:41:41;;;;;;;8.68;2.10;;;;;;;;;;4898042;29;20505;-77
2023/10/06 13:44:08;;;;;;;7.90;3.05;;;;;;;;;;4920789;29;20397;-78
2023/10/06 13:46:34;;;;;;;8.37;2.43;;;;;;;;;;4912265;28;20171;-78
2023/10/06 13:49:00;;;;;;;7.55;2.40;;;;;;;;;;4920130;29;20043;-78
2023/10/06 13:51:26;;;;;;;7.88;2.70;;;;;;;;;;4909871;29;20611;-77
2023/10/06 13:53:52;;;;;;;10.57;2.70;;;;;;;;;;4938327;28;20062;-79
2023/10/06 13:56:18;;;;;;;6.18;2.47;;;;;;;;;;4936218;28;20440;-76
2023/10/06 13:59:03;;;;;;;7.80;2.67;;;;;;;;;;4940763;28;20471;-77
2023/10/06 14:01:29;;;;;;;7.18;3.15;;;;;;;;;;4922582;28;20076;-78
2023/10/06 14:03:54;;;;;;;8.98;2.80;;;;;;;;;;4921892;29;20031;-77
2023/10/06 14:06:20;;;;;;;8.23;2.47;;;;;;;;;;4940139;28;20490;-79
2023/10/06 14:08:48;;;;;;;6.65;2.35;;;;;;;;;;4935630;28;20039;-78
2023/10/06 14:11:13;;;;;;;9.65;2.90;;;;;;;;;;4956657;28;20502;-78
2023/10/06 14:13:43;;;;;;;8.98;2.67;;;;;;;;;;4974908;28;20042;-78
2023/10/06 14:16:09;;;;;;;6.57;2.63;;;;;;;;;;4960578;28;20085;-78
2023/10/06 14:18:37;;;;;;;6.55;2.50;;;;;;;;;;4953481;28;20760;-78
2023/10/06 14:21:05;;;;;;;9.05;2.70;;;;;;;;;;4956527;28;20058;-79
2023/10/06 14:23:32;;;;;;;7.22;2.60;;;;;;;;;;4971989;28;20039;-78
2023/10/06 14:26:00;;;;;;;6.60;2.67;;;;;;;;;;4957286;28;20595;-78
2023/10/06 14:28:27;;;;;;;8.75;2.90;;;;;;;;;;4945986;28;20031;-78
2023/10/06 14:30:53;;;;;;;;;;;;;;;;;;4946183;28;20450;-78
2023/10/06 14:33:38;;;;;;;5.35;2.95;;;;;;;;;;4972527;28;19945;-79
2023/10/06 14:46:49;;;;;;;8.13;2.47;;;;;;;;;;4953362;28;20586;-77
2023/10/06 14:49:25;;;;;;;9.18;2.97;;;;;;;;;;4959753;28;20578;-77
2023/10/06 14:51:56;;;;;;;6.38;2.65;;;;;;;;;;4939467;28;20047;-78
2023/10/06 14:54:30;;;;;;;6.03;2.55;;;;;;;;;;4948495;28;20035;-78
2023/10/06 14:56:58;;;;;;;7.55;2.60;;;;;;;;;;4947501;28;20043;-76
2023/10/06 14:59:23;;;;;;;7.78;2.67;;;;;;;;;;4946252;28;20479;-75
2023/10/06 15:01:51;;;;;;;9.10;2.95;;;;;;;;;;4959776;28;20041;-76
2023/10/06 15:04:21;;;;;;;7.43;2.72;;;;;;;;;;4957845;28;20042;-76
2023/10/06 15:06:47;;;;;;;6.70;2.55;;;;;;;;;;4970292;28;20042;-76